createdAt,value
2023-03-20T00:01:24.427Z,1.87
2023-03-20T00:03:52.727Z,1.89
2023-03-20T00:06:25.528Z,1.90
2023-03-20T00:08:54.233Z,1.92
2023-03-20T00:11:26.740Z,1.94
2023-03-20T00:13:58.451Z,1.97
2023-03-20T00:16:28.277Z,1.99
2023-03-20T00:18:56.903Z,2.03
2023-03-20T00:21:31.073Z,2.07
2023-03-20T00:24:00.985Z,2.11
2023-03-20T00:26:46.878Z,2.16
2023-03-20T00:29:25.239Z,2.19
2023-03-20T00:31:54.229Z,2.13
2023-03-20T00:34:24.166Z,2.10
2023-03-20T00:36:52.439Z,2.15
2023-03-20T00:39:20.948Z,2.18
2023-03-20T00:41:50.827Z,2.20
2023-03-20T00:44:20.136Z,2.10
2023-03-20T00:46:55.123Z,1.95
2023-03-20T00:49:26.478Z,1.91
2023-03-20T00:52:01.624Z,1.66
2023-03-20T00:54:33.120Z,1.53
2023-03-20T00:57:02.465Z,1.41
2023-03-20T00:59:36.576Z,1.35
2023-03-20T01:02:04.920Z,1.47
2023-03-20T01:04:40.984Z,1.48
2023-03-20T01:07:13.202Z,1.46
2023-03-20T01:09:42.653Z,1.38
2023-03-20T01:12:11.240Z,1.34
2023-03-20T01:14:40.854Z,1.31
2023-03-20T01:17:17.598Z,1.30
2023-03-20T01:19:45.968Z,1.32
2023-03-20T01:22:14.720Z,1.33
2023-03-20T01:24:42.972Z,1.33
2023-03-20T01:27:18.171Z,1.35
2023-03-20T01:29:47.001Z,1.35
2023-03-20T01:32:16.255Z,1.34
2023-03-20T01:34:47.946Z,1.30
2023-03-20T01:37:23.996Z,1.22
2023-03-20T01:39:53.791Z,1.15
2023-03-20T01:42:22.166Z,1.12
2023-03-20T01:44:50.535Z,1.12
2023-03-20T01:47:20.062Z,1.11
2023-03-20T01:50:22.782Z,1.10
2023-03-20T01:53:04.442Z,1.05
2023-03-20T01:55:33.579Z,1.00
2023-03-20T01:58:07.972Z,0.98
2023-03-20T02:00:37.284Z,0.95
2023-03-20T02:03:08.731Z,0.94
2023-03-20T02:05:55.641Z,0.92
2023-03-20T02:08:31.556Z,0.87
2023-03-20T02:11:02.643Z,0.86
2023-03-20T02:13:32.490Z,0.89
2023-03-20T02:16:08.607Z,0.92
2023-03-20T02:18:52.742Z,0.95
2023-03-20T02:21:40.804Z,0.99
2023-03-20T02:24:15.740Z,1.06
2023-03-20T02:26:54.672Z,1.11
2023-03-20T02:29:35.973Z,1.16
2023-03-20T02:32:23.389Z,1.21
2023-03-20T02:34:55.449Z,1.26
2023-03-20T02:37:34.179Z,1.28
2023-03-20T02:40:09.208Z,1.25
2023-03-20T02:42:42.203Z,1.13
2023-03-20T02:45:13.566Z,0.96
2023-03-20T02:48:05.073Z,0.78
2023-03-20T02:50:38.887Z,0.61
2023-03-20T02:53:22.932Z,0.39
2023-03-20T02:55:57.396Z,0.15
2023-03-20T02:58:30.549Z,-0.03
2023-03-20T03:00:59.951Z,-0.14
2023-03-20T03:03:38.874Z,-0.21
2023-03-20T03:06:10.337Z,-0.30
2023-03-20T03:09:01.735Z,-0.36
2023-03-20T03:11:51.028Z,-0.42
2023-03-20T03:14:54.941Z,-0.42
2023-03-20T03:17:53.639Z,-0.44
2023-03-20T03:23:48.370Z,-0.52
2023-03-20T03:26:21.965Z,-0.54
2023-03-20T03:28:51.368Z,-0.50
2023-03-20T03:31:20.307Z,-0.41
2023-03-20T03:33:50.585Z,-0.31
2023-03-20T03:36:30.952Z,-0.26
2023-03-20T03:39:01.373Z,-0.19
2023-03-20T03:41:38.156Z,-0.15
2023-03-20T03:44:22.188Z,-0.08
2023-03-20T03:47:00.899Z,-0.04
2023-03-20T03:49:31.156Z,0.02
2023-03-20T03:52:00.967Z,0.08
2023-03-20T03:54:49.676Z,0.14
2023-03-20T03:57:43.027Z,0.16
2023-03-20T04:00:14.342Z,0.17
2023-03-20T04:02:45.896Z,0.17
2023-03-20T04:05:17.078Z,0.18
2023-03-20T04:07:47.675Z,0.24
2023-03-20T04:10:15.935Z,0.30
2023-03-20T04:12:55.608Z,0.37
2023-03-20T04:15:23.981Z,0.42
2023-03-20T04:17:52.158Z,0.49
2023-03-20T04:20:20.845Z,0.56
2023-03-20T04:22:49.419Z,0.62
2023-03-20T04:25:22.028Z,0.69
2023-03-20T04:27:52.448Z,0.76
2023-03-20T04:30:28.606Z,0.85
2023-03-20T04:33:29.144Z,0.96
2023-03-20T04:36:08.375Z,1.02
2023-03-20T04:38:36.759Z,1.04
2023-03-20T04:41:05.849Z,1.04
2023-03-20T04:43:35.773Z,0.96
2023-03-20T04:46:04.571Z,0.86
2023-03-20T04:48:33.071Z,0.77
2023-03-20T04:51:02.569Z,0.73
2023-03-20T04:53:42.108Z,0.67
2023-03-20T04:56:11.975Z,0.66
2023-03-20T04:58:41.116Z,0.65
2023-03-20T05:01:10.560Z,0.62
2023-03-20T05:03:39.570Z,0.60
2023-03-20T05:06:08.691Z,0.60
2023-03-20T05:08:38.078Z,0.62
2023-03-20T05:11:08.095Z,0.69
2023-03-20T05:14:15.634Z,0.79
2023-03-20T05:17:12.899Z,0.90
2023-03-20T05:20:07.953Z,0.98
2023-03-20T05:22:59.531Z,1.08
2023-03-20T05:25:46.643Z,1.22
2023-03-20T05:28:33.355Z,1.35
2023-03-20T05:31:12.252Z,1.47
2023-03-20T05:34:03.305Z,1.58
2023-03-20T05:36:48.782Z,1.72
2023-03-20T05:39:33.671Z,1.86
2023-03-20T05:42:19.952Z,2.00
2023-03-20T05:45:03.278Z,2.16
2023-03-20T05:47:56.643Z,2.33
2023-03-20T05:50:27.282Z,2.49
2023-03-20T05:53:13.079Z,2.66
2023-03-20T05:56:11.351Z,2.83
2023-03-20T05:58:42.601Z,2.94
2023-03-20T06:01:30.438Z,3.10
2023-03-20T06:04:18.304Z,3.31
2023-03-20T06:07:04.808Z,3.51
2023-03-20T06:09:34.532Z,3.67
2023-03-20T06:12:07.049Z,3.85
2023-03-20T06:14:35.395Z,4.03
2023-03-20T06:17:07.667Z,4.21
2023-03-20T06:19:37.376Z,4.36
2023-03-20T06:22:05.672Z,4.51
2023-03-20T06:24:36.249Z,4.68
2023-03-20T06:27:04.938Z,4.84
2023-03-20T06:29:34.185Z,5.00
2023-03-20T06:32:14.909Z,5.14
2023-03-20T06:34:43.391Z,5.29
2023-03-20T06:37:18.048Z,5.43
2023-03-20T06:39:47.315Z,5.56
2023-03-20T06:42:16.335Z,5.70
2023-03-20T06:44:44.998Z,5.85
2023-03-20T06:47:32.019Z,6.02
2023-03-20T06:50:01.649Z,6.16
2023-03-20T06:52:33.241Z,6.29
2023-03-20T06:55:22.766Z,6.29
2023-03-20T06:57:50.942Z,6.42
2023-03-20T07:00:21.835Z,6.53
2023-03-20T07:02:50.779Z,6.65
2023-03-20T07:05:21.049Z,6.81
2023-03-20T07:07:53.127Z,7.00
2023-03-20T07:10:21.454Z,7.17
2023-03-20T07:12:52.308Z,7.28
2023-03-20T07:15:39.170Z,7.35
2023-03-20T07:18:09.128Z,7.42
2023-03-20T07:20:42.527Z,7.56
2023-03-20T07:23:12.072Z,7.71
2023-03-20T07:25:43.044Z,7.82
2023-03-20T07:28:15.490Z,7.89
2023-03-20T07:30:46.917Z,8.02
2023-03-20T07:33:17.671Z,8.19
2023-03-20T07:35:46.562Z,8.38
2023-03-20T07:38:14.920Z,8.57
2023-03-20T07:40:50.747Z,8.74
2023-03-20T07:43:19.197Z,8.85
2023-03-20T07:46:26.804Z,9.02
2023-03-20T07:48:58.653Z,9.14
2023-03-20T07:51:26.748Z,9.21
2023-03-20T07:53:55.311Z,9.30
2023-03-20T07:56:23.597Z,9.42
2023-03-20T07:58:52.853Z,9.53
2023-03-20T08:01:21.350Z,9.62
2023-03-20T08:03:49.818Z,9.74
2023-03-20T08:06:29.370Z,9.84
2023-03-20T08:08:59.150Z,9.97
2023-03-20T08:11:28.383Z,10.10
2023-03-20T08:13:56.656Z,10.19
2023-03-20T08:16:25.567Z,10.27
2023-03-20T08:18:56.495Z,10.38
2023-03-20T08:21:24.568Z,10.48
2023-03-20T08:23:53.023Z,10.59
2023-03-20T08:26:22.080Z,10.73
2023-03-20T08:28:51.407Z,10.86
2023-03-20T08:31:20.413Z,10.94
2023-03-20T08:33:49.242Z,11.07
2023-03-20T08:36:19.858Z,11.19
2023-03-20T08:38:49.948Z,11.30
2023-03-20T08:41:19.064Z,11.45
2023-03-20T08:43:48.374Z,11.56
2023-03-20T08:46:16.667Z,11.61
2023-03-20T08:48:45.159Z,11.71
2023-03-20T08:51:14.668Z,11.79
2023-03-20T08:53:43.162Z,11.90
2023-03-20T08:56:12.336Z,12.04
2023-03-20T08:58:40.574Z,12.14
2023-03-20T09:01:09.432Z,12.26
2023-03-20T09:03:38.965Z,12.39
2023-03-20T09:06:07.937Z,12.49
2023-03-20T09:08:44.708Z,12.54
2023-03-20T09:11:13.102Z,12.58
2023-03-20T09:13:41.764Z,12.60
2023-03-20T09:16:09.966Z,12.61
2023-03-20T09:18:39.552Z,12.58
2023-03-20T09:21:08.244Z,12.54
2023-03-20T09:23:36.618Z,12.54
2023-03-20T09:26:06.084Z,12.59
2023-03-20T09:28:35.840Z,12.66
2023-03-20T09:31:04.354Z,12.72
2023-03-20T09:33:32.821Z,12.78
2023-03-20T09:36:01.529Z,12.86
2023-03-20T09:38:29.776Z,12.97
2023-03-20T09:40:59.385Z,13.07
2023-03-20T09:44:02.789Z,13.14
2023-03-20T09:46:38.365Z,13.24
2023-03-20T09:49:12.458Z,13.33
2023-03-20T09:51:45.643Z,13.37
2023-03-20T09:54:52.670Z,13.37
2023-03-20T09:57:21.934Z,13.41
2023-03-20T09:59:51.033Z,13.45
2023-03-20T10:02:24.697Z,13.48
2023-03-20T10:04:53.823Z,13.51
2023-03-20T10:07:22.122Z,13.52
2023-03-20T10:09:51.926Z,13.51
2023-03-20T10:12:21.042Z,13.51
2023-03-20T10:15:08.873Z,13.55
2023-03-20T10:17:41.080Z,13.66
2023-03-20T10:20:15.163Z,13.75
2023-03-20T10:22:50.994Z,13.78
2023-03-20T10:25:22.955Z,13.83
2023-03-20T10:27:57.404Z,13.91
2023-03-20T10:30:31.692Z,13.93
2023-03-20T10:33:11.243Z,13.99
2023-03-20T10:35:43.318Z,14.07
2023-03-20T10:38:20.730Z,14.14
2023-03-20T10:41:01.972Z,14.20
2023-03-20T10:43:50.459Z,14.24
2023-03-20T10:46:29.202Z,14.29
2023-03-20T10:48:59.101Z,14.31
2023-03-20T10:51:47.145Z,14.28
2023-03-20T10:54:27.188Z,14.26
2023-03-20T10:56:56.486Z,14.26
2023-03-20T10:59:24.736Z,14.25
2023-03-20T11:01:53.667Z,14.25
2023-03-20T11:04:22.499Z,14.32
2023-03-20T11:06:59.647Z,14.42
2023-03-20T11:09:30.081Z,14.51
2023-03-20T11:11:58.881Z,14.58
2023-03-20T11:14:35.755Z,14.63
2023-03-20T11:17:04.274Z,14.68
2023-03-20T11:19:33.875Z,14.71
2023-03-20T11:22:09.492Z,14.74
2023-03-20T11:24:41.332Z,14.76
2023-03-20T11:27:16.367Z,14.76
2023-03-20T11:29:49.189Z,14.81
2023-03-20T11:32:17.828Z,14.86
2023-03-20T11:34:46.200Z,14.87
2023-03-20T11:37:26.205Z,14.88
2023-03-20T11:40:01.538Z,14.89
2023-03-20T11:42:30.882Z,14.85
2023-03-20T11:45:00.387Z,14.83
2023-03-20T11:47:36.832Z,14.84
2023-03-20T11:50:07.376Z,14.90
2023-03-20T11:52:36.452Z,14.95
2023-03-20T11:55:07.494Z,15.03
2023-03-20T11:57:40.797Z,15.07
2023-03-20T12:00:20.647Z,15.09
2023-03-20T12:02:49.600Z,15.12
2023-03-20T12:05:34.205Z,15.16
2023-03-20T12:08:06.065Z,15.22
2023-03-20T12:10:39.681Z,15.29
2023-03-20T12:13:13.418Z,15.38
2023-03-20T12:15:49.894Z,15.43
2023-03-20T12:18:37.416Z,15.41
2023-03-20T12:21:21.221Z,15.36
2023-03-20T12:23:51.795Z,15.38
2023-03-20T12:26:57.300Z,15.41
2023-03-20T12:29:44.933Z,15.35
2023-03-20T12:32:17.114Z,15.36
2023-03-20T12:34:53.371Z,15.43
2023-03-20T12:37:21.962Z,15.51
2023-03-20T12:39:51.667Z,15.58
2023-03-20T12:42:22.713Z,15.61
2023-03-20T12:44:52.838Z,15.61
2023-03-20T12:47:40.985Z,15.65
2023-03-20T12:50:28.412Z,15.66
2023-03-20T12:53:09.800Z,15.61
2023-03-20T12:55:46.681Z,15.55
2023-03-20T12:58:24.182Z,15.51
2023-03-20T13:00:59.822Z,15.54
2023-03-20T13:03:33.832Z,15.59
2023-03-20T13:06:08.254Z,15.70
2023-03-20T13:09:09.878Z,15.79
2023-03-20T13:11:47.153Z,15.76
2023-03-20T13:14:28.130Z,15.71
2023-03-20T13:16:59.753Z,15.68
2023-03-20T13:19:37.593Z,15.69
2023-03-20T13:22:24.887Z,15.74
2023-03-20T13:25:03.080Z,15.78
2023-03-20T13:28:00.902Z,15.81
2023-03-20T13:30:44.904Z,15.85
2023-03-20T13:33:38.313Z,15.89
2023-03-20T13:36:11.453Z,15.93
2023-03-20T13:38:52.741Z,15.95
2023-03-20T13:41:27.773Z,15.94
2023-03-20T13:44:16.907Z,15.93
2023-03-20T13:47:07.926Z,15.93
2023-03-20T13:50:15.040Z,15.86
2023-03-20T13:53:19.994Z,15.55
2023-03-20T13:56:12.232Z,15.23
2023-03-20T13:58:53.334Z,14.99
2023-03-20T14:01:28.922Z,14.81
2023-03-20T14:04:36.559Z,14.59
2023-03-20T14:07:31.477Z,14.48
2023-03-20T14:10:39.175Z,14.51
2023-03-20T14:13:29.750Z,14.35
2023-03-20T14:16:32.876Z,14.28
2023-03-20T14:19:12.867Z,14.32
2023-03-20T14:21:53.677Z,14.28
2023-03-20T14:24:41.718Z,14.32
2023-03-20T14:27:36.790Z,14.37
2023-03-20T14:30:31.211Z,14.27
2023-03-20T14:33:16.901Z,14.13
2023-03-20T14:36:07.706Z,13.94
2023-03-20T14:39:02.732Z,13.86
2023-03-20T14:41:53.911Z,13.81
2023-03-20T14:44:46.096Z,13.79
2023-03-20T14:47:28.025Z,13.83
2023-03-20T14:50:08.568Z,13.89
2023-03-20T14:53:23.534Z,13.98
2023-03-20T14:56:27.008Z,14.07
2023-03-20T14:59:29.921Z,13.91
2023-03-20T15:02:45.506Z,13.70
2023-03-20T15:05:37.617Z,13.51
2023-03-20T15:08:40.363Z,13.35
2023-03-20T15:11:41.996Z,13.27
2023-03-20T15:14:34.951Z,13.29
2023-03-20T15:17:38.339Z,13.30
2023-03-20T15:20:34.248Z,13.38
2023-03-20T15:23:33.186Z,13.55
2023-03-20T15:27:01.989Z,13.68
2023-03-20T15:29:30.681Z,13.53
2023-03-20T15:32:13.268Z,13.33
2023-03-20T15:34:42.989Z,13.02
2023-03-20T15:37:15.780Z,12.70
2023-03-20T15:39:48.382Z,12.38
2023-03-20T15:42:17.668Z,12.07
2023-03-20T15:44:48.463Z,11.83
2023-03-20T15:47:21.028Z,11.61
2023-03-20T15:49:54.069Z,11.40
2023-03-20T15:52:32.494Z,11.21
2023-03-20T15:55:03.017Z,11.01
2023-03-20T15:57:35.349Z,10.83
2023-03-20T16:00:06.562Z,10.64
2023-03-20T16:02:35.644Z,10.51
2023-03-20T16:05:03.862Z,10.39
2023-03-20T16:07:33.405Z,10.26
2023-03-20T16:10:03.194Z,10.13
2023-03-20T16:12:34.301Z,10.02
2023-03-20T16:15:05.280Z,9.92
2023-03-20T16:17:33.519Z,9.82
2023-03-20T16:20:01.890Z,9.73
2023-03-20T16:22:31.293Z,9.64
2023-03-20T16:25:00.648Z,9.54
2023-03-20T16:27:29.805Z,9.45
2023-03-20T16:29:58.086Z,9.34
2023-03-20T16:32:35.695Z,9.26
2023-03-20T16:35:06.299Z,9.20
2023-03-20T16:37:38.680Z,9.13
2023-03-20T16:40:16.382Z,9.08
2023-03-20T16:42:44.750Z,9.01
2023-03-20T16:45:21.465Z,8.96
2023-03-20T16:47:49.604Z,8.87
2023-03-20T16:50:22.343Z,8.81
2023-03-20T16:52:52.005Z,8.75
2023-03-20T16:55:42.290Z,8.68
2023-03-20T16:58:11.399Z,8.62
2023-03-20T17:00:43.381Z,8.56
2023-03-20T17:03:12.149Z,8.50
2023-03-20T17:05:46.271Z,8.45
2023-03-20T17:08:15.161Z,8.38
2023-03-20T17:10:44.669Z,8.33
2023-03-20T17:13:12.941Z,8.28
2023-03-20T17:16:02.139Z,8.23
2023-03-20T17:18:31.312Z,8.18
2023-03-20T17:20:59.586Z,8.13
2023-03-20T17:23:27.867Z,8.09
2023-03-20T17:25:56.156Z,8.05
2023-03-20T17:28:25.171Z,8.00
2023-03-20T17:30:53.499Z,7.95
2023-03-20T17:33:23.746Z,7.90
2023-03-20T17:35:53.935Z,7.86
2023-03-20T17:38:22.794Z,7.83
2023-03-20T17:40:51.560Z,7.80
2023-03-20T17:43:19.844Z,7.77
2023-03-20T17:45:48.612Z,7.72
2023-03-20T17:48:18.720Z,7.69
2023-03-20T17:50:49.212Z,7.66
2023-03-20T17:53:21.453Z,7.64
2023-03-20T17:55:50.548Z,7.63
2023-03-20T17:58:20.682Z,7.60
2023-03-20T18:00:49.989Z,7.58
2023-03-20T18:03:18.567Z,7.55
2023-03-20T18:05:47.757Z,7.50
2023-03-20T18:08:17.138Z,7.46
2023-03-20T18:10:48.308Z,7.42
2023-03-20T18:13:21.064Z,7.39
2023-03-20T18:15:53.138Z,7.35
2023-03-20T18:18:23.885Z,7.34
2023-03-20T18:20:55.242Z,7.36
2023-03-20T18:23:25.780Z,7.36
2023-03-20T18:25:53.960Z,7.37
2023-03-20T18:28:24.790Z,7.35
2023-03-20T18:30:53.313Z,7.35
2023-03-20T18:33:28.109Z,7.32
2023-03-20T18:35:56.723Z,7.27
2023-03-20T18:38:25.911Z,7.21
2023-03-20T18:40:56.730Z,7.15
2023-03-20T18:43:26.346Z,7.11
2023-03-20T18:45:58.876Z,7.06
2023-03-20T18:48:46.966Z,7.02
2023-03-20T18:51:15.962Z,6.99
2023-03-20T18:53:45.162Z,6.96
2023-03-20T18:56:15.290Z,6.91
2023-03-20T18:58:50.426Z,6.86
2023-03-20T19:01:20.507Z,6.81
2023-03-20T19:03:49.164Z,6.77
2023-03-20T19:06:18.430Z,6.73
2023-03-20T19:08:47.071Z,6.70
2023-03-20T19:11:18.924Z,6.68
2023-03-20T19:13:51.499Z,6.65
2023-03-20T19:16:20.958Z,6.63
2023-03-20T19:18:52.736Z,6.61
2023-03-20T19:21:26.561Z,6.61
2023-03-20T19:23:59.031Z,6.59
2023-03-20T19:26:27.926Z,6.56
2023-03-20T19:28:56.474Z,6.50
2023-03-20T19:31:25.555Z,6.44
2023-03-20T19:33:54.738Z,6.36
2023-03-20T19:36:31.182Z,6.29
2023-03-20T19:39:00.402Z,6.22
2023-03-20T19:41:28.968Z,6.17
2023-03-20T19:43:57.215Z,6.09
2023-03-20T19:46:39.728Z,6.03
2023-03-20T19:49:19.202Z,5.95
2023-03-20T19:51:48.250Z,5.90
2023-03-20T19:54:16.562Z,5.86
2023-03-20T19:56:46.065Z,5.82
2023-03-20T19:59:17.031Z,5.76
2023-03-20T20:01:46.222Z,5.71
2023-03-20T20:04:16.195Z,5.66
2023-03-20T20:06:47.193Z,5.61
2023-03-20T20:09:16.589Z,5.56
2023-03-20T20:11:44.931Z,5.50
2023-03-20T20:14:14.892Z,5.43
2023-03-20T20:16:45.835Z,5.36
2023-03-20T20:19:21.765Z,5.29
2023-03-20T20:24:38.494Z,5.23
2023-03-20T20:27:17.549Z,5.21
2023-03-20T20:29:49.447Z,5.18
2023-03-20T20:32:23.613Z,5.18
2023-03-20T20:40:30.969Z,5.27
2023-03-20T20:43:01.781Z,5.29
2023-03-20T20:45:43.764Z,5.29
2023-03-20T20:48:12.875Z,5.30
2023-03-20T20:50:42.180Z,5.31
2023-03-20T20:53:11.175Z,5.32
2023-03-20T20:55:39.853Z,5.32
2023-03-20T20:58:10.536Z,5.32
2023-03-20T21:00:50.678Z,5.31
2023-03-20T21:03:21.593Z,5.31
2023-03-20T21:05:50.182Z,5.29
2023-03-20T21:08:19.216Z,5.26
2023-03-20T21:10:55.604Z,5.20
2023-03-20T21:13:24.109Z,5.13
2023-03-20T21:15:59.729Z,5.08
2023-03-20T21:18:29.185Z,5.04
2023-03-20T21:21:08.015Z,4.98
2023-03-20T21:23:36.394Z,4.90
2023-03-20T21:26:06.821Z,4.81
2023-03-20T21:28:36.968Z,4.73
2023-03-20T21:31:24.086Z,4.63
2023-03-20T21:33:54.494Z,4.57
2023-03-20T21:36:23.398Z,4.55
2023-03-20T21:39:09.048Z,4.54
2023-03-20T21:41:38.375Z,4.54
2023-03-20T21:44:07.600Z,4.53
2023-03-20T21:52:54.661Z,4.48
2023-03-20T21:55:48.247Z,4.48
2023-03-20T22:04:10.581Z,4.42
2023-03-20T22:12:52.837Z,4.31
2023-03-20T22:18:12.214Z,4.29
2023-03-20T22:46:16.916Z,4.06
2023-03-20T22:48:51.596Z,4.04
2023-03-20T22:51:22.670Z,4.03
2023-03-20T22:53:58.903Z,3.99
2023-03-20T22:56:27.184Z,3.97
2023-03-20T22:58:55.767Z,3.97
2023-03-20T23:01:23.969Z,3.97
2023-03-20T23:03:52.760Z,3.96
2023-03-20T23:06:21.936Z,3.91
2023-03-20T23:08:55.431Z,3.87
2023-03-20T23:11:25.882Z,3.87
2023-03-20T23:14:01.630Z,3.86
2023-03-20T23:16:31.566Z,3.85
2023-03-20T23:18:59.829Z,3.82
2023-03-20T23:21:47.971Z,3.82
2023-03-20T23:24:35.473Z,3.81
2023-03-20T23:27:10.015Z,3.80
2023-03-20T23:30:03.330Z,3.79
2023-03-20T23:32:54.135Z,3.80
2023-03-20T23:36:01.200Z,3.80
2023-03-20T23:39:10.827Z,3.81
2023-03-20T23:42:07.809Z,3.80
2023-03-20T23:44:56.518Z,3.78
2023-03-20T23:47:44.561Z,3.73
2023-03-20T23:50:26.350Z,3.71
2023-03-20T23:53:09.833Z,3.69
2023-03-20T23:55:46.194Z,3.68
2023-03-20T23:58:17.034Z,3.66
